Mount Uniacke, Canada
Current Conditions -  °F | °C
As of 2:21 PM on Thursday 18 Dec 2014 (Local Time) from CYHZ Reporting Station
Broken Clouds Broken Clouds  
Wind Chill: 31°   Ceiling: 18000
Heat Index: 39°   Visibility: 15mi
Dew Point: 36°   Wind: 15mph
Humidity: 87%   Direction: 220°SW
Pressure: 29.37"   Gusts: 22mph
Location:  44.88°N, 63.83°W
Report Text: CYHZ 181821Z 22013G19KT 15SM SCT011 BKN180 04/02 A2937 RMK CU4AC1 SLP949
Loading
Personal Weather Stations






























Interactive Weather Map New forecast layout! Learn more

10-Day Weather Forecast

Advertisements
Track Severe Weather on mobile